WXM80 ListenWXM80 Stop

You find our weather info also at:

UK Metoffice

WeatherCloud

Weather Underground

Northeastern Weather Network

AWEKAS

Citizen Weather Observer Program (CWOP)

HAMweather, WeatherForYou, PWS Weather


Weather Underground History page Text

Daily Summary for February 23, 2018 Units:  Both    English   Metric
« Previous Day
Next Day »
Daily Weekly Monthly Yearly Custom
  High: Low: Average:
Temperature: 39.3 °F /  4.1 °C 35.6 °F /  2 °C 37 °F /  2.8 °C
Dew Point: 38.5 °F /  3.6 °C 33.4 °F /  0.8 °C 35.5 °F /  1.9 °C
Humidity: 98 % 89 % 94 %
Wind Speed: 9.4 mph /  15.1 km/h - 3.7 mph /  6 km/h
Wind Gust: 13.8 mph /  22.2 km/h - -
Wind:- - East
Pressure: 30.43 in /  1030.4 hPa 29.91 in /  1012.8 hPa -
Precipitation: 0.08 in /  2.03 mm    
Historical Graphs
 
 
Tabular Data for February 23, 2018
Time Temperature Dew Point Pressure Wind Wind Speed Wind Gust Humidity Rainfall Rate (Hourly)
00:03 36.2 °F /  2.3 °C 34.4 °F /  1.3 °C 30.42 in /  1030 hPa NNE 6.4 mph /  10.3 km/h 12.7 mph /  20.4 km/h 93 % 0.00 in /  0 mm
00:08 36.2 °F /  2.3 °C 34.4 °F /  1.3 °C 30.42 in /  1030 hPa NE 4.6 mph /  7.4 km/h 8.1 mph /  13 km/h 93 % 0.00 in /  0 mm
00:13 36.1 °F /  2.3 °C 34.3 °F /  1.3 °C 30.41 in /  1029.7 hPa ENE 6.6 mph /  10.6 km/h 11.5 mph /  18.5 km/h 93 % 0.00 in /  0 mm
00:18 36.1 °F /  2.3 °C 34.3 °F /  1.3 °C 30.42 in /  1030 hPa ENE 3.6 mph /  5.8 km/h 7.0 mph /  11.3 km/h 93 % 0.00 in /  0 mm
00:23 36.1 °F /  2.3 °C 34.3 °F /  1.3 °C 30.42 in /  1030 hPa NE 6.3 mph /  10.1 km/h 9.2 mph /  14.8 km/h 93 % 0.00 in /  0 mm
00:28 36.1 °F /  2.3 °C 34.3 °F /  1.3 °C 30.42 in /  1030 hPa ENE 2.7 mph /  4.3 km/h 11.5 mph /  18.5 km/h 93 % 0.00 in /  0 mm
00:33 36.1 °F /  2.3 °C 34.3 °F /  1.3 °C 30.42 in /  1030 hPa NE 4.3 mph /  6.9 km/h 7.0 mph /  11.3 km/h 93 % 0.00 in /  0 mm
00:38 36.1 °F /  2.3 °C 34.3 °F /  1.3 °C 30.42 in /  1030 hPa NE 5.0 mph /  8 km/h 8.1 mph /  13 km/h 93 % 0.00 in /  0 mm
00:44 36.0 °F /  2.2 °C 34.2 °F /  1.2 °C 30.42 in /  1030 hPa East 7.7 mph /  12.4 km/h 11.5 mph /  18.5 km/h 93 % 0.00 in /  0 mm
00:48 36.0 °F /  2.2 °C 34.2 °F /  1.2 °C 30.43 in /  1030.4 hPa ENE 5.8 mph /  9.3 km/h 9.2 mph /  14.8 km/h 93 % 0.00 in /  0 mm
00:53 35.9 °F /  2.2 °C 33.8 °F /  1 °C 30.42 in /  1030 hPa ENE 5.6 mph /  9 km/h 11.5 mph /  18.5 km/h 92 % 0.00 in /  0 mm
00:58 35.9 °F /  2.2 °C 33.8 °F /  1 °C 30.43 in /  1030.4 hPa NE 3.6 mph /  5.8 km/h 5.8 mph /  9.3 km/h 92 % 0.00 in /  0 mm
01:03 35.9 °F /  2.2 °C 34.1 °F /  1.2 °C 30.42 in /  1030 hPa ENE 5.0 mph /  8 km/h 11.0 mph /  17.7 km/h 93 % 0.00 in /  0 mm
01:08 35.8 °F /  2.1 °C 33.7 °F /  0.9 °C 30.42 in /  1030 hPa ENE 7.7 mph /  12.4 km/h 10.0 mph /  16.1 km/h 92 % 0.00 in /  0 mm
01:13 35.8 °F /  2.1 °C 33.7 °F /  0.9 °C 30.43 in /  1030.4 hPa ENE 4.7 mph /  7.6 km/h 12.0 mph /  19.3 km/h 92 % 0.00 in /  0 mm
01:18 35.7 °F /  2.1 °C 33.6 °F /  0.9 °C 30.43 in /  1030.4 hPa NE 3.9 mph /  6.3 km/h 6.9 mph /  11.1 km/h 92 % 0.00 in /  0 mm
01:23 35.7 °F /  2.1 °C 33.6 °F /  0.9 °C 30.42 in /  1030 hPa ENE 5.8 mph /  9.3 km/h 8.1 mph /  13 km/h 92 % 0.00 in /  0 mm
01:28 35.7 °F /  2.1 °C 33.6 °F /  0.9 °C 30.42 in /  1030 hPa ENE 7.9 mph /  12.7 km/h 12.0 mph /  19.3 km/h 92 % 0.00 in /  0 mm
01:33 35.7 °F /  2.1 °C 33.6 °F /  0.9 °C 30.42 in /  1030 hPa East 6.3 mph /  10.1 km/h 13.8 mph /  22.2 km/h 92 % 0.00 in /  0 mm
01:38 35.7 °F /  2.1 °C 33.6 °F /  0.9 °C 30.42 in /  1030 hPa ENE 5.2 mph /  8.4 km/h 10.4 mph /  16.7 km/h 92 % 0.00 in /  0 mm
01:43 35.7 °F /  2.1 °C 33.6 °F /  0.9 °C 30.42 in /  1030 hPa ENE 6.3 mph /  10.1 km/h 9.2 mph /  14.8 km/h 92 % 0.00 in /  0 mm
01:48 35.7 °F /  2.1 °C 33.6 °F /  0.9 °C 30.42 in /  1030 hPa ENE 6.4 mph /  10.3 km/h 10.4 mph /  16.7 km/h 92 % 0.00 in /  0 mm
01:53 35.7 °F /  2.1 °C 33.6 °F /  0.9 °C 30.42 in /  1030 hPa NE 2.9 mph /  4.7 km/h 5.0 mph /  8 km/h 92 % 0.00 in /  0 mm
01:58 35.7 °F /  2.1 °C 33.6 °F /  0.9 °C 30.43 in /  1030.4 hPa ENE 5.6 mph /  9 km/h 8.1 mph /  13 km/h 92 % 0.00 in /  0 mm
02:03 35.7 °F /  2.1 °C 33.6 °F /  0.9 °C 30.43 in /  1030.4 hPa NE 5.0 mph /  8 km/h 9.2 mph /  14.8 km/h 92 % 0.00 in /  0 mm
02:09 35.7 °F /  2.1 °C 33.6 °F /  0.9 °C 30.42 in /  1030 hPa ENE 5.9 mph /  9.5 km/h 9.2 mph /  14.8 km/h 92 % 0.00 in /  0 mm
02:14 35.7 °F /  2.1 °C 33.6 °F /  0.9 °C 30.42 in /  1030 hPa ENE 3.7 mph /  6 km/h 10.4 mph /  16.7 km/h 92 % 0.00 in /  0 mm
02:19 35.7 °F /  2.1 °C 33.6 °F /  0.9 °C 30.42 in /  1030 hPa ENE 6.1 mph /  9.8 km/h 10.4 mph /  16.7 km/h 92 % 0.00 in /  0 mm
02:24 35.6 °F /  2 °C 33.5 °F /  0.8 °C 30.41 in /  1029.7 hPa ENE 4.7 mph /  7.6 km/h 9.2 mph /  14.8 km/h 92 % 0.00 in /  0 mm
02:29 35.7 °F /  2.1 °C 33.6 °F /  0.9 °C 30.42 in /  1030 hPa ENE 3.8 mph /  6.1 km/h 6.9 mph /  11.1 km/h 92 % 0.00 in /  0 mm
02:34 35.7 °F /  2.1 °C 33.6 °F /  0.9 °C 30.41 in /  1029.7 hPa ENE 6.7 mph /  10.8 km/h 9.2 mph /  14.8 km/h 92 % 0.00 in /  0 mm
02:39 35.7 °F /  2.1 °C 33.6 °F /  0.9 °C 30.40 in /  1029.3 hPa ENE 8.5 mph /  13.7 km/h 11.5 mph /  18.5 km/h 92 % 0.00 in /  0 mm
02:44 35.7 °F /  2.1 °C 33.6 °F /  0.9 °C 30.39 in /  1029 hPa ENE 6.3 mph /  10.1 km/h 9.2 mph /  14.8 km/h 92 % 0.00 in /  0 mm
02:49 35.7 °F /  2.1 °C 33.6 °F /  0.9 °C 30.40 in /  1029.3 hPa ENE 6.0 mph /  9.7 km/h 8.1 mph /  13 km/h 92 % 0.00 in /  0 mm
02:54 35.7 °F /  2.1 °C 33.6 °F /  0.9 °C 30.39 in /  1029 hPa ENE 6.9 mph /  11.1 km/h 10.0 mph /  16.1 km/h 92 % 0.00 in /  0 mm
02:59 35.8 °F /  2.1 °C 33.7 °F /  0.9 °C 30.38 in /  1028.7 hPa ENE 5.4 mph /  8.7 km/h 10.4 mph /  16.7 km/h 92 % 0.00 in /  0 mm
03:04 35.8 °F /  2.1 °C 33.7 °F /  0.9 °C 30.39 in /  1029 hPa NE 6.2 mph /  10 km/h 9.2 mph /  14.8 km/h 92 % 0.00 in /  0 mm
03:09 35.8 °F /  2.1 °C 33.7 °F /  0.9 °C 30.39 in /  1029 hPa East 5.3 mph /  8.5 km/h 7.0 mph /  11.3 km/h 92 % 0.00 in /  0 mm
03:14 35.9 °F /  2.2 °C 33.8 °F /  1 °C 30.40 in /  1029.3 hPa ENE 3.8 mph /  6.1 km/h 5.0 mph /  8 km/h 92 % 0.00 in /  0 mm
03:19 35.9 °F /  2.2 °C 33.8 °F /  1 °C 30.40 in /  1029.3 hPa East 4.2 mph /  6.8 km/h 7.0 mph /  11.3 km/h 92 % 0.00 in /  0 mm
03:24 35.9 °F /  2.2 °C 33.8 °F /  1 °C 30.39 in /  1029 hPa ENE 4.4 mph /  7.1 km/h 7.0 mph /  11.3 km/h 92 % 0.00 in /  0 mm
03:29 36.0 °F /  2.2 °C 33.9 °F /  1.1 °C 30.39 in /  1029 hPa East 4.2 mph /  6.8 km/h 8.1 mph /  13 km/h 92 % 0.00 in /  0 mm
03:34 36.0 °F /  2.2 °C 33.9 °F /  1.1 °C 30.39 in /  1029 hPa ENE 3.9 mph /  6.3 km/h 7.0 mph /  11.3 km/h 92 % 0.00 in /  0 mm
03:39 36.0 °F /  2.2 °C 34.2 °F /  1.2 °C 30.40 in /  1029.3 hPa ENE 4.0 mph /  6.4 km/h 6.9 mph /  11.1 km/h 93 % 0.00 in /  0 mm
03:44 36.0 °F /  2.2 °C 33.9 °F /  1.1 °C 30.40 in /  1029.3 hPa ENE 5.4 mph /  8.7 km/h 6.9 mph /  11.1 km/h 92 % 0.00 in /  0 mm
03:49 36.0 °F /  2.2 °C 33.9 °F /  1.1 °C 30.40 in /  1029.3 hPa NE 5.0 mph /  8 km/h 8.1 mph /  13 km/h 92 % 0.00 in /  0 mm
03:54 36.0 °F /  2.2 °C 33.9 °F /  1.1 °C 30.40 in /  1029.3 hPa ENE 4.3 mph /  6.9 km/h 8.1 mph /  13 km/h 92 % 0.00 in /  0 mm
04:00 36.0 °F /  2.2 °C 34.2 °F /  1.2 °C 30.40 in /  1029.3 hPa ENE 3.6 mph /  5.8 km/h 4.6 mph /  7.4 km/h 93 % 0.00 in /  0 mm
04:05 36.0 °F /  2.2 °C 33.9 °F /  1.1 °C 30.40 in /  1029.3 hPa ENE 5.0 mph /  8 km/h 7.0 mph /  11.3 km/h 92 % 0.00 in /  0 mm
04:10 36.0 °F /  2.2 °C 33.9 °F /  1.1 °C 30.39 in /  1029 hPa East 4.1 mph /  6.6 km/h 5.0 mph /  8 km/h 92 % 0.00 in /  0 mm
04:15 36.0 °F /  2.2 °C 33.9 °F /  1.1 °C 30.40 in /  1029.3 hPa ENE 6.2 mph /  10 km/h 8.1 mph /  13 km/h 92 % 0.00 in /  0 mm
04:20 36.0 °F /  2.2 °C 33.9 °F /  1.1 °C 30.41 in /  1029.7 hPa ENE 4.9 mph /  7.9 km/h 7.0 mph /  11.3 km/h 92 % 0.00 in /  0 mm
04:25 36.0 °F /  2.2 °C 33.9 °F /  1.1 °C 30.41 in /  1029.7 hPa ENE 6.1 mph /  9.8 km/h 8.1 mph /  13 km/h 92 % 0.00 in /  0 mm
04:30 36.0 °F /  2.2 °C 33.9 °F /  1.1 °C 30.40 in /  1029.3 hPa ENE 5.0 mph /  8 km/h 6.9 mph /  11.1 km/h 92 % 0.00 in /  0 mm
04:35 36.0 °F /  2.2 °C 33.9 °F /  1.1 °C 30.41 in /  1029.7 hPa ENE 4.4 mph /  7.1 km/h 6.9 mph /  11.1 km/h 92 % 0.00 in /  0 mm
04:40 36.0 °F /  2.2 °C 34.2 °F /  1.2 °C 30.41 in /  1029.7 hPa ENE 6.8 mph /  10.9 km/h 9.2 mph /  14.8 km/h 93 % 0.00 in /  0 mm
04:45 36.0 °F /  2.2 °C 34.2 °F /  1.2 °C 30.40 in /  1029.3 hPa ENE 4.5 mph /  7.2 km/h 6.9 mph /  11.1 km/h 93 % 0.00 in /  0 mm
04:50 36.0 °F /  2.2 °C 33.9 °F /  1.1 °C 30.41 in /  1029.7 hPa ENE 4.0 mph /  6.4 km/h 4.6 mph /  7.4 km/h 92 % 0.00 in /  0 mm
04:55 36.0 °F /  2.2 °C 33.9 °F /  1.1 °C 30.41 in /  1029.7 hPa ENE 4.4 mph /  7.1 km/h 4.6 mph /  7.4 km/h 92 % 0.00 in /  0 mm
05:00 36.0 °F /  2.2 °C 34.2 °F /  1.2 °C 30.40 in /  1029.3 hPa ENE 4.7 mph /  7.6 km/h 6.9 mph /  11.1 km/h 93 % 0.00 in /  0 mm
05:05 36.0 °F /  2.2 °C 34.2 °F /  1.2 °C 30.40 in /  1029.3 hPa ENE 5.1 mph /  8.2 km/h 8.0 mph /  12.9 km/h 93 % 0.00 in /  0 mm
05:10 36.1 °F /  2.3 °C 34.3 °F /  1.3 °C 30.41 in /  1029.7 hPa ENE 7.0 mph /  11.3 km/h 10.4 mph /  16.7 km/h 93 % 0.00 in /  0 mm
05:15 36.0 °F /  2.2 °C 33.9 °F /  1.1 °C 30.40 in /  1029.3 hPa ENE 8.1 mph /  13 km/h 10.4 mph /  16.7 km/h 92 % 0.00 in /  0 mm
05:20 36.0 °F /  2.2 °C 33.9 °F /  1.1 °C 30.40 in /  1029.3 hPa ENE 7.0 mph /  11.3 km/h 10.0 mph /  16.1 km/h 92 % 0.00 in /  0 mm
05:25 36.0 °F /  2.2 °C 33.9 °F /  1.1 °C 30.40 in /  1029.3 hPa ENE 6.0 mph /  9.7 km/h 10.0 mph /  16.1 km/h 92 % 0.00 in /  0 mm
05:30 35.9 °F /  2.2 °C 33.8 °F /  1 °C 30.40 in /  1029.3 hPa ENE 6.0 mph /  9.7 km/h 9.0 mph /  14.5 km/h 92 % 0.00 in /  0 mm
05:35 35.9 °F /  2.2 °C 33.8 °F /  1 °C 30.40 in /  1029.3 hPa ENE 5.7 mph /  9.2 km/h 11.5 mph /  18.5 km/h 92 % 0.00 in /  0 mm
05:40 35.9 °F /  2.2 °C 33.8 °F /  1 °C 30.40 in /  1029.3 hPa ENE 7.0 mph /  11.3 km/h 9.0 mph /  14.5 km/h 92 % 0.00 in /  0 mm
05:45 35.9 °F /  2.2 °C 33.8 °F /  1 °C 30.40 in /  1029.3 hPa ENE 6.0 mph /  9.7 km/h 10.0 mph /  16.1 km/h 92 % 0.00 in /  0 mm
05:50 35.9 °F /  2.2 °C 33.8 °F /  1 °C 30.40 in /  1029.3 hPa ENE 6.0 mph /  9.7 km/h 12.0 mph /  19.3 km/h 92 % 0.00 in /  0 mm
05:55 35.8 °F /  2.1 °C 33.4 °F /  0.8 °C 30.39 in /  1029 hPa East 6.6 mph /  10.6 km/h 8.0 mph /  12.9 km/h 91 % 0.00 in /  0 mm
06:01 35.8 °F /  2.1 °C 33.4 °F /  0.8 °C 30.39 in /  1029 hPa East 5.9 mph /  9.5 km/h 9.2 mph /  14.8 km/h 91 % 0.00 in /  0 mm
06:06 35.8 °F /  2.1 °C 33.4 °F /  0.8 °C 30.39 in /  1029 hPa East 5.7 mph /  9.2 km/h 8.1 mph /  13 km/h 91 % 0.00 in /  0 mm
06:11 35.8 °F /  2.1 °C 33.4 °F /  0.8 °C 30.39 in /  1029 hPa ENE 5.8 mph /  9.3 km/h 7.0 mph /  11.3 km/h 91 % 0.00 in /  0 mm
06:16 35.8 °F /  2.1 °C 33.4 °F /  0.8 °C 30.40 in /  1029.3 hPa ENE 7.0 mph /  11.3 km/h 10.0 mph /  16.1 km/h 91 % 0.00 in /  0 mm
06:21 35.8 °F /  2.1 °C 33.4 °F /  0.8 °C 30.39 in /  1029 hPa ENE 6.3 mph /  10.1 km/h 10.4 mph /  16.7 km/h 91 % 0.00 in /  0 mm
06:26 35.9 °F /  2.2 °C 33.5 °F /  0.8 °C 30.39 in /  1029 hPa East 6.5 mph /  10.5 km/h 8.1 mph /  13 km/h 91 % 0.00 in /  0 mm
06:31 35.9 °F /  2.2 °C 33.5 °F /  0.8 °C 30.40 in /  1029.3 hPa East 7.0 mph /  11.3 km/h 9.2 mph /  14.8 km/h 91 % 0.00 in /  0 mm
06:36 35.9 °F /  2.2 °C 33.5 °F /  0.8 °C 30.39 in /  1029 hPa ENE 5.3 mph /  8.5 km/h 9.2 mph /  14.8 km/h 91 % 0.00 in /  0 mm
06:41 35.9 °F /  2.2 °C 33.5 °F /  0.8 °C 30.39 in /  1029 hPa ENE 5.0 mph /  8 km/h 10.4 mph /  16.7 km/h 91 % 0.00 in /  0 mm
06:46 35.9 °F /  2.2 °C 33.5 °F /  0.8 °C 30.39 in /  1029 hPa ENE 5.2 mph /  8.4 km/h 8.1 mph /  13 km/h 91 % 0.00 in /  0 mm
06:51 35.9 °F /  2.2 °C 33.5 °F /  0.8 °C 30.39 in /  1029 hPa ENE 9.0 mph /  14.5 km/h 11.5 mph /  18.5 km/h 91 % 0.00 in /  0 mm
06:56 35.9 °F /  2.2 °C 33.5 °F /  0.8 °C 30.39 in /  1029 hPa ENE 8.8 mph /  14.2 km/h 12.0 mph /  19.3 km/h 91 % 0.00 in /  0 mm
07:01 35.9 °F /  2.2 °C 33.5 °F /  0.8 °C 30.39 in /  1029 hPa ENE 7.5 mph /  12.1 km/h 10.0 mph /  16.1 km/h 91 % 0.00 in /  0 mm
07:06 36.0 °F /  2.2 °C 33.6 °F /  0.9 °C 30.39 in /  1029 hPa ENE 6.3 mph /  10.1 km/h 8.1 mph /  13 km/h 91 % 0.00 in /  0 mm
07:11 36.0 °F /  2.2 °C 33.6 °F /  0.9 °C 30.39 in /  1029 hPa ENE 7.7 mph /  12.4 km/h 9.0 mph /  14.5 km/h 91 % 0.00 in /  0 mm
07:17 36.1 °F /  2.3 °C 33.7 °F /  0.9 °C 30.39 in /  1029 hPa East 8.6 mph /  13.8 km/h 11.5 mph /  18.5 km/h 91 % 0.00 in /  0 mm
07:22 36.1 °F /  2.3 °C 33.7 °F /  0.9 °C 30.39 in /  1029 hPa ENE 6.7 mph /  10.8 km/h 11.5 mph /  18.5 km/h 91 % 0.00 in /  0 mm
07:27 36.1 °F /  2.3 °C 34.0 °F /  1.1 °C 30.39 in /  1029 hPa East 7.4 mph /  11.9 km/h 10.4 mph /  16.7 km/h 92 % 0.00 in /  0 mm
07:32 36.0 °F /  2.2 °C 33.9 °F /  1.1 °C 30.39 in /  1029 hPa ENE 7.5 mph /  12.1 km/h 11.5 mph /  18.5 km/h 92 % 0.00 in /  0 mm
07:37 36.0 °F /  2.2 °C 33.9 °F /  1.1 °C 30.39 in /  1029 hPa ENE 7.7 mph /  12.4 km/h 10.4 mph /  16.7 km/h 92 % 0.00 in /  0 mm
07:42 36.0 °F /  2.2 °C 33.9 °F /  1.1 °C 30.39 in /  1029 hPa ENE 7.0 mph /  11.3 km/h 8.1 mph /  13 km/h 92 % 0.00 in /  0 mm
07:47 36.0 °F /  2.2 °C 33.9 °F /  1.1 °C 30.39 in /  1029 hPa East 7.5 mph /  12.1 km/h 11.5 mph /  18.5 km/h 92 % 0.00 in /  0 mm
07:52 36.0 °F /  2.2 °C 33.9 °F /  1.1 °C 30.39 in /  1029 hPa ENE 9.4 mph /  15.1 km/h 11.5 mph /  18.5 km/h 92 % 0.00 in /  0 mm
07:57 36.1 °F /  2.3 °C 33.7 °F /  0.9 °C 30.37 in /  1028.3 hPa ENE 9.3 mph /  15 km/h 12.7 mph /  20.4 km/h 91 % 0.00 in /  0 mm
08:02 36.2 °F /  2.3 °C 33.8 °F /  1 °C 30.38 in /  1028.7 hPa NE 7.4 mph /  11.9 km/h 8.1 mph /  13 km/h 91 % 0.00 in /  0 mm
08:07 36.3 °F /  2.4 °C 33.9 °F /  1.1 °C 30.38 in /  1028.7 hPa East 9.1 mph /  14.6 km/h 9.2 mph /  14.8 km/h 91 % 0.00 in /  0 mm
08:13 36.4 °F /  2.4 °C 34.0 °F /  1.1 °C 30.38 in /  1028.7 hPa NE 7.4 mph /  11.9 km/h 10.4 mph /  16.7 km/h 91 % 0.00 in /  0 mm
08:18 36.4 °F /  2.4 °C 34.0 °F /  1.1 °C 30.39 in /  1029 hPa East 9.2 mph /  14.8 km/h 13.8 mph /  22.2 km/h 91 % 0.00 in /  0 mm
08:23 36.4 °F /  2.4 °C 34.0 °F /  1.1 °C 30.38 in /  1028.7 hPa East 8.4 mph /  13.5 km/h 10.4 mph /  16.7 km/h 91 % 0.00 in /  0 mm
08:28 36.4 °F /  2.4 °C 34.0 °F /  1.1 °C 30.38 in /  1028.7 hPa East 7.4 mph /  11.9 km/h 8.1 mph /  13 km/h 91 % 0.00 in /  0 mm
08:33 36.4 °F /  2.4 °C 34.0 °F /  1.1 °C 30.39 in /  1029 hPa ENE 7.4 mph /  11.9 km/h 10.4 mph /  16.7 km/h 91 % 0.00 in /  0 mm
08:38 36.5 °F /  2.5 °C 34.1 °F /  1.2 °C 30.39 in /  1029 hPa East 7.1 mph /  11.4 km/h 9.2 mph /  14.8 km/h 91 % 0.00 in /  0 mm
08:43 36.5 °F /  2.5 °C 34.1 °F /  1.2 °C 30.37 in /  1028.3 hPa East 7.0 mph /  11.3 km/h 9.2 mph /  14.8 km/h 91 % 0.00 in /  0 mm
08:48 36.6 °F /  2.6 °C 34.2 °F /  1.2 °C 30.37 in /  1028.3 hPa East 6.9 mph /  11.1 km/h 10.4 mph /  16.7 km/h 91 % 0.00 in /  0 mm
08:53 36.7 °F /  2.6 °C 34.3 °F /  1.3 °C 30.39 in /  1029 hPa East 5.4 mph /  8.7 km/h 6.9 mph /  11.1 km/h 91 % 0.00 in /  0 mm
08:58 36.8 °F /  2.7 °C 34.4 °F /  1.3 °C 30.37 in /  1028.3 hPa ENE 6.1 mph /  9.8 km/h 9.2 mph /  14.8 km/h 91 % 0.00 in /  0 mm
09:03 36.9 °F /  2.7 °C 34.5 °F /  1.4 °C 30.38 in /  1028.7 hPa East 6.2 mph /  10 km/h 8.1 mph /  13 km/h 91 % 0.00 in /  0 mm
09:08 36.9 °F /  2.7 °C 34.2 °F /  1.2 °C 30.37 in /  1028.3 hPa East 5.2 mph /  8.4 km/h 9.0 mph /  14.5 km/h 90 % 0.00 in /  0 mm
09:13 36.9 °F /  2.7 °C 34.2 °F /  1.2 °C 30.37 in /  1028.3 hPa East 4.7 mph /  7.6 km/h 6.9 mph /  11.1 km/h 90 % 0.00 in /  0 mm
09:18 37.0 °F /  2.8 °C 34.3 °F /  1.3 °C 30.38 in /  1028.7 hPa East 5.0 mph /  8 km/h 6.9 mph /  11.1 km/h 90 % 0.00 in /  0 mm
09:23 37.0 °F /  2.8 °C 34.3 °F /  1.3 °C 30.38 in /  1028.7 hPa ENE 5.3 mph /  8.5 km/h 8.1 mph /  13 km/h 90 % 0.00 in /  0 mm
09:28 37.0 °F /  2.8 °C 34.3 °F /  1.3 °C 30.38 in /  1028.7 hPa ENE 4.0 mph /  6.4 km/h 5.8 mph /  9.3 km/h 90 % 0.00 in /  0 mm
09:33 37.0 °F /  2.8 °C 34.3 °F /  1.3 °C 30.38 in /  1028.7 hPa ENE 5.6 mph /  9 km/h 8.0 mph /  12.9 km/h 90 % 0.00 in /  0 mm
09:38 37.0 °F /  2.8 °C 34.3 °F /  1.3 °C 30.38 in /  1028.7 hPa ENE 2.7 mph /  4.3 km/h 4.0 mph /  6.4 km/h 90 % 0.00 in /  0 mm
09:44 37.1 °F /  2.8 °C 34.4 °F /  1.3 °C 30.38 in /  1028.7 hPa East 5.5 mph /  8.9 km/h 7.0 mph /  11.3 km/h 90 % 0.00 in /  0 mm
09:49 37.1 °F /  2.8 °C 34.4 °F /  1.3 °C 30.37 in /  1028.3 hPa East 3.8 mph /  6.1 km/h 5.8 mph /  9.3 km/h 90 % 0.00 in /  0 mm
09:54 37.2 °F /  2.9 °C 34.5 °F /  1.4 °C 30.38 in /  1028.7 hPa East 3.4 mph /  5.5 km/h 5.8 mph /  9.3 km/h 90 % 0.00 in /  0 mm
09:59 37.2 °F /  2.9 °C 34.5 °F /  1.4 °C 30.38 in /  1028.7 hPa ENE 2.6 mph /  4.2 km/h 4.6 mph /  7.4 km/h 90 % 0.00 in /  0 mm
10:04 37.2 °F /  2.9 °C 34.3 °F /  1.3 °C 30.38 in /  1028.7 hPa East 1.4 mph /  2.3 km/h 4.6 mph /  7.4 km/h 89 % 0.00 in /  0 mm
10:09 37.2 °F /  2.9 °C 34.3 °F /  1.3 °C 30.38 in /  1028.7 hPa East 2.9 mph /  4.7 km/h 5.8 mph /  9.3 km/h 89 % 0.00 in /  0 mm
10:14 37.3 °F /  2.9 °C 34.4 °F /  1.3 °C 30.39 in /  1029 hPa East 2.4 mph /  3.9 km/h 3.5 mph /  5.6 km/h 89 % 0.00 in /  0 mm
10:19 37.4 °F /  3 °C 34.7 °F /  1.5 °C 30.37 in /  1028.3 hPa East 2.5 mph /  4 km/h 3.5 mph /  5.6 km/h 90 % 0.00 in /  0 mm
10:24 37.4 °F /  3 °C 34.7 °F /  1.5 °C 30.37 in /  1028.3 hPa ENE 3.9 mph /  6.3 km/h 5.8 mph /  9.3 km/h 90 % 0.00 in /  0 mm
10:29 37.5 °F /  3.1 °C 35.1 °F /  1.7 °C 30.36 in /  1028 hPa ENE 3.9 mph /  6.3 km/h 7.0 mph /  11.3 km/h 91 % 0.00 in /  0 mm
10:34 37.5 °F /  3.1 °C 35.1 °F /  1.7 °C 30.36 in /  1028 hPa ENE 6.2 mph /  10 km/h 8.1 mph /  13 km/h 91 % 0.00 in /  0 mm
10:39 37.3 °F /  2.9 °C 34.9 °F /  1.6 °C 30.35 in /  1027.7 hPa East 4.4 mph /  7.1 km/h 6.0 mph /  9.7 km/h 91 % 0.00 in /  0 mm
10:44 37.3 °F /  2.9 °C 35.2 °F /  1.8 °C 30.35 in /  1027.7 hPa ENE 5.8 mph /  9.3 km/h 7.0 mph /  11.3 km/h 92 % 0.00 in /  0 mm
10:49 37.2 °F /  2.9 °C 35.1 °F /  1.7 °C 30.35 in /  1027.7 hPa East 3.9 mph /  6.3 km/h 6.9 mph /  11.1 km/h 92 % 0.00 in /  0 mm
10:54 37.1 °F /  2.8 °C 35.0 °F /  1.7 °C 30.35 in /  1027.7 hPa ENE 4.8 mph /  7.7 km/h 8.1 mph /  13 km/h 92 % 0.00 in /  0 mm
10:59 36.9 °F /  2.7 °C 35.1 °F /  1.7 °C 30.35 in /  1027.7 hPa ENE 6.6 mph /  10.6 km/h 9.2 mph /  14.8 km/h 93 % 0.00 in /  0 mm
11:04 36.7 °F /  2.6 °C 34.9 °F /  1.6 °C 30.35 in /  1027.7 hPa ENE 4.7 mph /  7.6 km/h 8.1 mph /  13 km/h 93 % 0.00 in /  0 mm
11:09 36.7 °F /  2.6 °C 34.9 °F /  1.6 °C 30.34 in /  1027.3 hPa ENE 7.0 mph /  11.3 km/h 10.4 mph /  16.7 km/h 93 % 0.00 in /  0 mm
11:14 36.7 °F /  2.6 °C 35.1 °F /  1.7 °C 30.34 in /  1027.3 hPa East 6.0 mph /  9.7 km/h 9.2 mph /  14.8 km/h 94 % 0.00 in /  0 mm
11:20 36.8 °F /  2.7 °C 35.2 °F /  1.8 °C 30.34 in /  1027.3 hPa ENE 3.9 mph /  6.3 km/h 4.0 mph /  6.4 km/h 94 % 0.00 in /  0 mm
11:25 36.8 °F /  2.7 °C 35.2 °F /  1.8 °C 30.34 in /  1027.3 hPa ENE 4.8 mph /  7.7 km/h 8.1 mph /  13 km/h 94 % 0.00 in /  0 mm
11:30 36.8 °F /  2.7 °C 35.2 °F /  1.8 °C 30.33 in /  1027 hPa ENE 6.2 mph /  10 km/h 8.1 mph /  13 km/h 94 % 0.00 in /  0 mm
11:35 36.7 °F /  2.6 °C 35.1 °F /  1.7 °C 30.32 in /  1026.6 hPa NE 5.0 mph /  8 km/h 9.0 mph /  14.5 km/h 94 % 0.00 in /  0 mm
11:40 36.8 °F /  2.7 °C 35.2 °F /  1.8 °C 30.32 in /  1026.6 hPa ENE 4.8 mph /  7.7 km/h 8.1 mph /  13 km/h 94 % 0.00 in /  0 mm
11:45 36.8 °F /  2.7 °C 35.2 °F /  1.8 °C 30.32 in /  1026.6 hPa ENE 3.5 mph /  5.6 km/h 5.0 mph /  8 km/h 94 % 0.00 in /  0 mm
11:50 36.9 °F /  2.7 °C 35.3 °F /  1.8 °C 30.32 in /  1026.6 hPa ENE 6.7 mph /  10.8 km/h 9.2 mph /  14.8 km/h 94 % 0.00 in /  0 mm
11:55 36.8 °F /  2.7 °C 35.2 °F /  1.8 °C 30.31 in /  1026.3 hPa ENE 7.1 mph /  11.4 km/h 10.4 mph /  16.7 km/h 94 % 0.00 in /  0 mm
12:00 36.7 °F /  2.6 °C 35.4 °F /  1.9 °C 30.31 in /  1026.3 hPa ENE 4.3 mph /  6.9 km/h 8.1 mph /  13 km/h 95 % 0.00 in /  0 mm
12:05 36.7 °F /  2.6 °C 35.4 °F /  1.9 °C 30.31 in /  1026.3 hPa ENE 4.5 mph /  7.2 km/h 6.9 mph /  11.1 km/h 95 % 0.00 in /  0 mm
12:10 36.8 °F /  2.7 °C 35.5 °F /  1.9 °C 30.31 in /  1026.3 hPa ENE 2.9 mph /  4.7 km/h 4.6 mph /  7.4 km/h 95 % 0.00 in /  0 mm
12:15 36.9 °F /  2.7 °C 35.6 °F /  2 °C 30.30 in /  1026 hPa ENE 5.1 mph /  8.2 km/h 9.2 mph /  14.8 km/h 95 % 0.00 in /  0 mm
12:20 36.9 °F /  2.7 °C 35.6 °F /  2 °C 30.29 in /  1025.6 hPa ENE 3.6 mph /  5.8 km/h 6.9 mph /  11.1 km/h 95 % 0.00 in /  0 mm
12:25 37.0 °F /  2.8 °C 35.7 °F /  2.1 °C 30.28 in /  1025.3 hPa ENE 5.1 mph /  8.2 km/h 8.1 mph /  13 km/h 95 % 0.00 in /  0 mm
12:30 37.1 °F /  2.8 °C 35.8 °F /  2.1 °C 30.28 in /  1025.3 hPa East 4.0 mph /  6.4 km/h 6.9 mph /  11.1 km/h 95 % 0.00 in /  0 mm
12:35 37.1 °F /  2.8 °C 35.8 °F /  2.1 °C 30.27 in /  1024.9 hPa ENE 4.9 mph /  7.9 km/h 9.2 mph /  14.8 km/h 95 % 0.00 in /  0 mm
12:40 37.2 °F /  2.9 °C 35.9 °F /  2.2 °C 30.27 in /  1024.9 hPa ENE 5.4 mph /  8.7 km/h 6.9 mph /  11.1 km/h 95 % 0.00 in /  0 mm
12:46 37.2 °F /  2.9 °C 35.9 °F /  2.2 °C 30.27 in /  1024.9 hPa ENE 6.0 mph /  9.7 km/h 9.0 mph /  14.5 km/h 95 % 0.00 in /  0 mm
12:51 37.2 °F /  2.9 °C 35.9 °F /  2.2 °C 30.27 in /  1024.9 hPa ENE 6.0 mph /  9.7 km/h 12.0 mph /  19.3 km/h 95 % 0.00 in /  0 mm
12:56 37.2 °F /  2.9 °C 35.9 °F /  2.2 °C 30.26 in /  1024.6 hPa ENE 7.0 mph /  11.3 km/h 10.0 mph /  16.1 km/h 95 % 0.00 in /  0 mm
13:01 37.2 °F /  2.9 °C 35.9 °F /  2.2 °C 30.26 in /  1024.6 hPa ENE 7.5 mph /  12.1 km/h 9.2 mph /  14.8 km/h 95 % 0.00 in /  0 mm
13:06 37.2 °F /  2.9 °C 35.9 °F /  2.2 °C 30.26 in /  1024.6 hPa NE 4.4 mph /  7.1 km/h 8.1 mph /  13 km/h 95 % 0.00 in /  0 mm
13:11 37.2 °F /  2.9 °C 35.9 °F /  2.2 °C 30.26 in /  1024.6 hPa NE 6.1 mph /  9.8 km/h 9.2 mph /  14.8 km/h 95 % 0.00 in /  0 mm
13:16 37.3 °F /  2.9 °C 36.0 °F /  2.2 °C 30.25 in /  1024.3 hPa ENE 7.5 mph /  12.1 km/h 10.4 mph /  16.7 km/h 95 % 0.00 in /  0 mm
13:21 37.2 °F /  2.9 °C 35.9 °F /  2.2 °C 30.24 in /  1023.9 hPa ENE 6.6 mph /  10.6 km/h 10.4 mph /  16.7 km/h 95 % 0.00 in /  0 mm
13:26 37.2 °F /  2.9 °C 35.9 °F /  2.2 °C 30.23 in /  1023.6 hPa ENE 6.4 mph /  10.3 km/h 10.4 mph /  16.7 km/h 95 % 0.00 in /  0 mm
13:31 37.3 °F /  2.9 °C 36.0 °F /  2.2 °C 30.23 in /  1023.6 hPa ENE 6.6 mph /  10.6 km/h 11.5 mph /  18.5 km/h 95 % 0.00 in /  0 mm
13:36 37.3 °F /  2.9 °C 36.0 °F /  2.2 °C 30.23 in /  1023.6 hPa East 5.1 mph /  8.2 km/h 9.0 mph /  14.5 km/h 95 % 0.00 in /  0 mm
13:41 37.3 °F /  2.9 °C 36.0 °F /  2.2 °C 30.22 in /  1023.2 hPa ENE 5.4 mph /  8.7 km/h 8.1 mph /  13 km/h 95 % 0.00 in /  0 mm
13:46 37.4 °F /  3 °C 36.1 °F /  2.3 °C 30.22 in /  1023.2 hPa ENE 3.9 mph /  6.3 km/h 5.8 mph /  9.3 km/h 95 % 0.00 in /  0 mm
13:51 37.5 °F /  3.1 °C 36.2 °F /  2.3 °C 30.23 in /  1023.6 hPa East 4.4 mph /  7.1 km/h 6.9 mph /  11.1 km/h 95 % 0.00 in /  0 mm
13:56 37.5 °F /  3.1 °C 36.2 °F /  2.3 °C 30.23 in /  1023.6 hPa ENE 3.8 mph /  6.1 km/h 6.9 mph /  11.1 km/h 95 % 0.00 in /  0 mm
14:02 37.5 °F /  3.1 °C 36.2 °F /  2.3 °C 30.23 in /  1023.6 hPa East 6.3 mph /  10.1 km/h 9.2 mph /  14.8 km/h 95 % 0.00 in /  0 mm
14:07 37.4 °F /  3 °C 36.1 °F /  2.3 °C 30.21 in /  1022.9 hPa East 5.8 mph /  9.3 km/h 8.1 mph /  13 km/h 95 % 0.00 in /  0 mm
14:12 37.5 °F /  3.1 °C 36.2 °F /  2.3 °C 30.21 in /  1022.9 hPa ENE 5.0 mph /  8 km/h 6.9 mph /  11.1 km/h 95 % 0.00 in /  0 mm
14:17 37.5 °F /  3.1 °C 36.2 °F /  2.3 °C 30.21 in /  1022.9 hPa ENE 6.6 mph /  10.6 km/h 9.2 mph /  14.8 km/h 95 % 0.00 in /  0 mm
14:22 37.4 °F /  3 °C 36.1 °F /  2.3 °C 30.21 in /  1022.9 hPa East 4.9 mph /  7.9 km/h 7.0 mph /  11.3 km/h 95 % 0.00 in /  0 mm
14:27 37.3 °F /  2.9 °C 36.3 °F /  2.4 °C 30.21 in /  1022.9 hPa ENE 5.0 mph /  8 km/h 6.9 mph /  11.1 km/h 96 % 0.00 in /  0 mm
14:32 37.3 °F /  2.9 °C 36.3 °F /  2.4 °C 30.21 in /  1022.9 hPa ENE 7.2 mph /  11.6 km/h 10.4 mph /  16.7 km/h 96 % 0.00 in /  0 mm
14:37 37.3 °F /  2.9 °C 36.3 °F /  2.4 °C 30.21 in /  1022.9 hPa ENE 3.1 mph /  5 km/h 4.6 mph /  7.4 km/h 96 % 0.00 in /  0 mm
14:42 37.3 °F /  2.9 °C 36.3 °F /  2.4 °C 30.21 in /  1022.9 hPa ENE 3.4 mph /  5.5 km/h 5.0 mph /  8 km/h 96 % 0.00 in /  0 mm
14:47 37.3 °F /  2.9 °C 36.3 °F /  2.4 °C 30.20 in /  1022.6 hPa ENE 4.5 mph /  7.2 km/h 8.1 mph /  13 km/h 96 % 0.00 in /  0 mm
14:52 37.3 °F /  2.9 °C 36.3 °F /  2.4 °C 30.18 in /  1021.9 hPa East 5.6 mph /  9 km/h 8.1 mph /  13 km/h 96 % 0.00 in /  0 mm
14:57 37.4 °F /  3 °C 36.4 °F /  2.4 °C 30.17 in /  1021.6 hPa East 3.9 mph /  6.3 km/h 8.1 mph /  13 km/h 96 % 0.00 in /  0 mm
15:02 37.5 °F /  3.1 °C 36.5 °F /  2.5 °C 30.18 in /  1021.9 hPa East 4.3 mph /  6.9 km/h 6.9 mph /  11.1 km/h 96 % 0.00 in /  0 mm
15:07 37.5 °F /  3.1 °C 36.5 °F /  2.5 °C 30.18 in /  1021.9 hPa ENE 4.5 mph /  7.2 km/h 6.9 mph /  11.1 km/h 96 % 0.00 in /  0 mm
15:12 37.5 °F /  3.1 °C 36.5 °F /  2.5 °C 30.18 in /  1021.9 hPa ENE 2.4 mph /  3.9 km/h 3.5 mph /  5.6 km/h 96 % 0.00 in /  0 mm
15:17 37.6 °F /  3.1 °C 36.6 °F /  2.6 °C 30.17 in /  1021.6 hPa East 5.8 mph /  9.3 km/h 6.9 mph /  11.1 km/h 96 % 0.00 in /  0 mm
15:22 37.6 °F /  3.1 °C 36.6 °F /  2.6 °C 30.17 in /  1021.6 hPa East 4.1 mph /  6.6 km/h 6.0 mph /  9.7 km/h 96 % 0.00 in /  0 mm
15:27 37.6 °F /  3.1 °C 36.6 °F /  2.6 °C 30.15 in /  1020.9 hPa East 1.3 mph /  2.1 km/h 4.6 mph /  7.4 km/h 96 % 0.00 in /  0 mm
15:32 37.7 °F /  3.2 °C 36.7 °F /  2.6 °C 30.15 in /  1020.9 hPa East 2.5 mph /  4 km/h 4.6 mph /  7.4 km/h 96 % 0.00 in /  0 mm
15:37 37.7 °F /  3.2 °C 36.7 °F /  2.6 °C 30.14 in /  1020.5 hPa ENE 3.1 mph /  5 km/h 4.6 mph /  7.4 km/h 96 % 0.00 in /  0 mm
15:42 37.8 °F /  3.2 °C 37.0 °F /  2.8 °C 30.12 in /  1019.9 hPa East 5.1 mph /  8.2 km/h 6.9 mph /  11.1 km/h 97 % 0.00 in /  0 mm
15:48 37.8 °F /  3.2 °C 37.0 °F /  2.8 °C 30.13 in /  1020.2 hPa ENE 3.4 mph /  5.5 km/h 5.0 mph /  8 km/h 97 % 0.00 in /  0 mm
15:53 37.9 °F /  3.3 °C 37.1 °F /  2.8 °C 30.16 in /  1021.2 hPa ENE 0.4 mph /  0.6 km/h 1.0 mph /  1.6 km/h 97 % 0.00 in /  0 mm
15:58 37.9 °F /  3.3 °C 37.1 °F /  2.8 °C 30.17 in /  1021.6 hPa NE 0.3 mph /  0.5 km/h 3.5 mph /  5.6 km/h 97 % 0.00 in /  0 mm
16:03 37.9 °F /  3.3 °C 37.1 °F /  2.8 °C 30.16 in /  1021.2 hPa NE 0.9 mph /  1.4 km/h 1.2 mph /  1.9 km/h 97 % 0.00 in /  0 mm
16:08 37.9 °F /  3.3 °C 37.1 °F /  2.8 °C 30.15 in /  1020.9 hPa ENE 2.8 mph /  4.5 km/h 3.5 mph /  5.6 km/h 97 % 0.00 in /  0 mm
16:13 37.9 °F /  3.3 °C 37.1 °F /  2.8 °C 30.15 in /  1020.9 hPa ENE 2.4 mph /  3.9 km/h 3.5 mph /  5.6 km/h 97 % 0.00 in /  0 mm
16:18 37.8 °F /  3.2 °C 37.0 °F /  2.8 °C 30.14 in /  1020.5 hPa ENE 3.2 mph /  5.1 km/h 4.6 mph /  7.4 km/h 97 % 0.00 in /  0 mm
16:23 37.8 °F /  3.2 °C 37.0 °F /  2.8 °C 30.14 in /  1020.5 hPa ENE 2.7 mph /  4.3 km/h 3.5 mph /  5.6 km/h 97 % 0.00 in /  0 mm
16:28 37.7 °F /  3.2 °C 36.9 °F /  2.7 °C 30.13 in /  1020.2 hPa ENE 1.6 mph /  2.6 km/h 3.5 mph /  5.6 km/h 97 % 0.00 in /  0 mm
16:33 37.7 °F /  3.2 °C 36.9 °F /  2.7 °C 30.12 in /  1019.9 hPa ENE 2.9 mph /  4.7 km/h 4.6 mph /  7.4 km/h 97 % 0.00 in /  0 mm
16:38 37.8 °F /  3.2 °C 37.0 °F /  2.8 °C 30.12 in /  1019.9 hPa East 1.6 mph /  2.6 km/h 3.5 mph /  5.6 km/h 97 % 0.00 in /  0 mm
16:43 37.8 °F /  3.2 °C 37.0 °F /  2.8 °C 30.13 in /  1020.2 hPa East 0.9 mph /  1.4 km/h 2.3 mph /  3.7 km/h 97 % 0.00 in /  0 mm
16:48 37.8 °F /  3.2 °C 37.0 °F /  2.8 °C 30.13 in /  1020.2 hPa ENE 1.6 mph /  2.6 km/h 3.5 mph /  5.6 km/h 97 % 0.00 in /  0 mm
16:53 37.8 °F /  3.2 °C 37.0 °F /  2.8 °C 30.13 in /  1020.2 hPa NNE 2.2 mph /  3.5 km/h 3.5 mph /  5.6 km/h 97 % 0.00 in /  0 mm
16:58 37.9 °F /  3.3 °C 37.1 °F /  2.8 °C 30.14 in /  1020.5 hPa NNE 0.8 mph /  1.3 km/h 2.3 mph /  3.7 km/h 97 % 0.00 in /  0 mm
17:03 37.9 °F /  3.3 °C 37.1 °F /  2.8 °C 30.13 in /  1020.2 hPa NNE 1.0 mph /  1.6 km/h 2.3 mph /  3.7 km/h 97 % 0.00 in /  0 mm
17:08 37.9 °F /  3.3 °C 37.1 °F /  2.8 °C 30.12 in /  1019.9 hPa Calm     97 % 0.00 in /  0 mm
17:13 37.9 °F /  3.3 °C 37.1 °F /  2.8 °C 30.12 in /  1019.9 hPa Calm     97 % 0.00 in /  0 mm
17:18 37.9 °F /  3.3 °C 37.1 °F /  2.8 °C 30.11 in /  1019.5 hPa NE 0.7 mph /  1.1 km/h 3.5 mph /  5.6 km/h 97 % 0.00 in /  0 mm
17:23 37.9 °F /  3.3 °C 37.1 °F /  2.8 °C 30.10 in /  1019.2 hPa NE 1.2 mph /  1.9 km/h 1.2 mph /  1.9 km/h 97 % 0.00 in /  0 mm
17:28 37.9 °F /  3.3 °C 37.1 °F /  2.8 °C 30.10 in /  1019.2 hPa Calm   2.3 mph /  3.7 km/h 97 % 0.00 in /  0 mm
17:33 37.9 °F /  3.3 °C 37.1 °F /  2.8 °C 30.09 in /  1018.8 hPa NE 0.1 mph /  0.2 km/h 1.2 mph /  1.9 km/h 97 % 0.00 in /  0 mm
17:39 37.9 °F /  3.3 °C 37.1 °F /  2.8 °C 30.09 in /  1018.8 hPa Calm   1.2 mph /  1.9 km/h 97 % 0.00 in /  0 mm
17:44 37.9 °F /  3.3 °C 37.1 °F /  2.8 °C 30.08 in /  1018.5 hPa Calm   1.2 mph /  1.9 km/h 97 % 0.00 in /  0 mm
17:49 37.9 °F /  3.3 °C 37.1 °F /  2.8 °C 30.08 in /  1018.5 hPa Calm     97 % 0.00 in /  0 mm
17:54 37.9 °F /  3.3 °C 37.1 °F /  2.8 °C 30.08 in /  1018.5 hPa Calm     97 % 0.00 in /  0 mm
17:59 37.9 °F /  3.3 °C 37.1 °F /  2.8 °C 30.08 in /  1018.5 hPa Calm     97 % 0.00 in /  0 mm
18:04 37.9 °F /  3.3 °C 37.1 °F /  2.8 °C 30.08 in /  1018.5 hPa NE 0.5 mph /  0.8 km/h 3.5 mph /  5.6 km/h 97 % 0.00 in /  0 mm
18:09 38.0 °F /  3.3 °C 37.2 °F /  2.9 °C 30.08 in /  1018.5 hPa Calm     97 % 0.00 in /  0 mm
18:14 38.0 °F /  3.3 °C 37.2 °F /  2.9 °C 30.09 in /  1018.8 hPa Calm   1.2 mph /  1.9 km/h 97 % 0.00 in /  0 mm
18:19 38.1 °F /  3.4 °C 37.3 °F /  2.9 °C 30.09 in /  1018.8 hPa Calm   3.5 mph /  5.6 km/h 97 % 0.00 in /  0 mm
18:24 38.1 °F /  3.4 °C 37.3 °F /  2.9 °C 30.10 in /  1019.2 hPa Calm     97 % 0.00 in /  0 mm
18:29 38.1 °F /  3.4 °C 37.3 °F /  2.9 °C 30.09 in /  1018.8 hPa Calm     97 % 0.02 in /  0.51 mm
18:34 38.1 °F /  3.4 °C 37.3 °F /  2.9 °C 30.08 in /  1018.5 hPa Calm     97 % 0.03 in /  0.76 mm
18:39 38.1 °F /  3.4 °C 37.3 °F /  2.9 °C 30.08 in /  1018.5 hPa Calm     97 % 0.05 in /  1.27 mm
18:44 38.0 °F /  3.3 °C 37.2 °F /  2.9 °C 30.07 in /  1018.2 hPa Calm     97 % 0.07 in /  1.78 mm
18:49 38.0 °F /  3.3 °C 37.2 °F /  2.9 °C 30.06 in /  1017.8 hPa Calm     97 % 0.07 in /  1.78 mm
18:54 38.0 °F /  3.3 °C 37.2 °F /  2.9 °C 30.06 in /  1017.8 hPa Calm     97 % 0.08 in /  2.03 mm
18:59 38.0 °F /  3.3 °C 37.2 °F /  2.9 °C 30.05 in /  1017.5 hPa Calm     97 % 0.08 in /  2.03 mm
19:04 37.9 °F /  3.3 °C 37.1 °F /  2.8 °C 30.05 in /  1017.5 hPa Calm     97 % 0.08 in /  2.03 mm
19:09 37.9 °F /  3.3 °C 37.1 °F /  2.8 °C 30.05 in /  1017.5 hPa Calm     97 % 0.08 in /  2.03 mm
19:14 37.9 °F /  3.3 °C 37.1 °F /  2.8 °C 30.04 in /  1017.2 hPa Calm     97 % 0.08 in /  2.03 mm
19:20 37.9 °F /  3.3 °C 37.1 °F /  2.8 °C 30.05 in /  1017.5 hPa NNE 0.2 mph /  0.3 km/h 1.2 mph /  1.9 km/h 97 % 0.08 in /  2.03 mm
19:25 37.9 °F /  3.3 °C 37.1 °F /  2.8 °C 30.05 in /  1017.5 hPa Calm     97 % 0.08 in /  2.03 mm
19:30 37.9 °F /  3.3 °C 37.1 °F /  2.8 °C 30.05 in /  1017.5 hPa Calm     97 % 0.06 in /  1.52 mm
19:35 37.9 °F /  3.3 °C 37.1 °F /  2.8 °C 30.04 in /  1017.2 hPa Calm     97 % 0.04 in /  1.02 mm
19:40 37.9 °F /  3.3 °C 37.1 °F /  2.8 °C 30.03 in /  1016.8 hPa Calm     97 % 0.02 in /  0.51 mm
19:45 37.9 °F /  3.3 °C 37.1 °F /  2.8 °C 30.02 in /  1016.5 hPa Calm     97 % 0.01 in /  0.25 mm
19:50 37.9 °F /  3.3 °C 37.1 °F /  2.8 °C 30.02 in /  1016.5 hPa Calm     97 % 0.00 in /  0 mm
19:55 37.9 °F /  3.3 °C 37.1 °F /  2.8 °C 30.01 in /  1016.1 hPa Calm     97 % 0.00 in /  0 mm
20:00 37.9 °F /  3.3 °C 37.1 °F /  2.8 °C 30.00 in /  1015.8 hPa Calm     97 % 0.00 in /  0 mm
20:05 37.9 °F /  3.3 °C 37.1 °F /  2.8 °C 30.00 in /  1015.8 hPa Calm     97 % 0.00 in /  0 mm
20:10 37.8 °F /  3.2 °C 37.0 °F /  2.8 °C 30.01 in /  1016.1 hPa NNE 0.3 mph /  0.5 km/h 2.3 mph /  3.7 km/h 97 % 0.00 in /  0 mm
20:15 37.9 °F /  3.3 °C 37.1 °F /  2.8 °C 30.01 in /  1016.1 hPa NNW 0.5 mph /  0.8 km/h 2.3 mph /  3.7 km/h 97 % 0.00 in /  0 mm
20:20 37.9 °F /  3.3 °C 37.1 °F /  2.8 °C 30.01 in /  1016.1 hPa NNW 0.3 mph /  0.5 km/h 3.5 mph /  5.6 km/h 97 % 0.00 in /  0 mm
20:25 37.8 °F /  3.2 °C 37.0 °F /  2.8 °C 30.00 in /  1015.8 hPa Calm   3.5 mph /  5.6 km/h 97 % 0.00 in /  0 mm
20:31 37.8 °F /  3.2 °C 37.0 °F /  2.8 °C 30.00 in /  1015.8 hPa Calm   1.0 mph /  1.6 km/h 97 % 0.00 in /  0 mm
20:36 37.8 °F /  3.2 °C 37.0 °F /  2.8 °C 30.00 in /  1015.8 hPa Calm     97 % 0.00 in /  0 mm
20:41 37.7 °F /  3.2 °C 37.0 °F /  2.8 °C 30.00 in /  1015.8 hPa Calm   1.0 mph /  1.6 km/h 97 % 0.00 in /  0 mm
20:46 37.7 °F /  3.2 °C 36.9 °F /  2.7 °C 30.00 in /  1015.8 hPa Calm   2.0 mph /  3.2 km/h 97 % 0.00 in /  0 mm
20:51 37.7 °F /  3.2 °C 36.9 °F /  2.7 °C 30.00 in /  1015.8 hPa Calm     97 % 0.00 in /  0 mm
20:56 37.7 °F /  3.2 °C 36.9 °F /  2.7 °C 30.00 in /  1015.8 hPa NW 1.0 mph /  1.6 km/h 3.0 mph /  4.8 km/h 97 % 0.00 in /  0 mm
21:01 37.7 °F /  3.2 °C 36.9 °F /  2.7 °C 30.01 in /  1016.1 hPa Calm   1.2 mph /  1.9 km/h 97 % 0.00 in /  0 mm
21:06 37.6 °F /  3.1 °C 36.8 °F /  2.7 °C 30.00 in /  1015.8 hPa NW 1.0 mph /  1.6 km/h 4.0 mph /  6.4 km/h 97 % 0.00 in /  0 mm
21:11 37.6 °F /  3.1 °C 36.8 °F /  2.7 °C 30.00 in /  1015.8 hPa Calm   2.0 mph /  3.2 km/h 97 % 0.00 in /  0 mm
21:16 37.5 °F /  3.1 °C 36.7 °F /  2.6 °C 30.00 in /  1015.8 hPa WNW 0.7 mph /  1.1 km/h 3.5 mph /  5.6 km/h 97 % 0.00 in /  0 mm
21:21 37.5 °F /  3.1 °C 36.7 °F /  2.6 °C 29.99 in /  1015.5 hPa Calm   3.0 mph /  4.8 km/h 97 % 0.00 in /  0 mm
21:26 37.5 °F /  3.1 °C 36.7 °F /  2.6 °C 29.99 in /  1015.5 hPa Calm   1.0 mph /  1.6 km/h 97 % 0.00 in /  0 mm
21:31 37.5 °F /  3.1 °C 36.7 °F /  2.6 °C 29.99 in /  1015.5 hPa Calm   2.0 mph /  3.2 km/h 97 % 0.00 in /  0 mm
21:36 37.5 °F /  3.1 °C 36.7 °F /  2.6 °C 29.98 in /  1015.1 hPa Calm   1.0 mph /  1.6 km/h 97 % 0.00 in /  0 mm
21:41 37.5 °F /  3.1 °C 36.7 °F /  2.6 °C 29.97 in /  1014.8 hPa Calm   2.3 mph /  3.7 km/h 97 % 0.00 in /  0 mm
21:46 37.5 °F /  3.1 °C 36.7 °F /  2.6 °C 29.96 in /  1014.4 hPa WNW 1.0 mph /  1.6 km/h 3.0 mph /  4.8 km/h 97 % 0.00 in /  0 mm
21:51 37.5 °F /  3.1 °C 36.7 °F /  2.6 °C 29.97 in /  1014.8 hPa West 1.0 mph /  1.6 km/h 4.0 mph /  6.4 km/h 97 % 0.00 in /  0 mm
21:56 37.6 °F /  3.1 °C 36.8 °F /  2.7 °C 29.96 in /  1014.4 hPa West 1.0 mph /  1.6 km/h 3.0 mph /  4.8 km/h 97 % 0.00 in /  0 mm
22:01 37.7 °F /  3.2 °C 36.9 °F /  2.7 °C 29.95 in /  1014.1 hPa West 0.6 mph /  1 km/h 3.5 mph /  5.6 km/h 97 % 0.00 in /  0 mm
22:06 37.7 °F /  3.2 °C 36.9 °F /  2.7 °C 29.95 in /  1014.1 hPa Calm     97 % 0.00 in /  0 mm
22:11 37.7 °F /  3.2 °C 36.9 °F /  2.7 °C 29.94 in /  1013.8 hPa Calm     97 % 0.00 in /  0 mm
22:13 37.7 °F /  3.2 °C 36.9 °F /  2.7 °C 29.95 in /  1014.1 hPa Calm     97 % 0.00 in /  0 mm
22:18 37.8 °F /  3.2 °C 37.0 °F /  2.8 °C 29.95 in /  1014.1 hPa West 0.1 mph /  0.2 km/h 1.2 mph /  1.9 km/h 97 % 0.00 in /  0 mm
22:23 37.8 °F /  3.2 °C 37.0 °F /  2.8 °C 29.95 in /  1014.1 hPa Calm     97 % 0.00 in /  0 mm
22:28 37.9 °F /  3.3 °C 37.1 °F /  2.8 °C 29.95 in /  1014.1 hPa Calm   1.2 mph /  1.9 km/h 97 % 0.00 in /  0 mm
22:33 38.0 °F /  3.3 °C 37.2 °F /  2.9 °C 29.94 in /  1013.8 hPa West 0.8 mph /  1.3 km/h 3.5 mph /  5.6 km/h 97 % 0.00 in /  0 mm
22:38 38.0 °F /  3.3 °C 37.2 °F /  2.9 °C 29.94 in /  1013.8 hPa West 0.3 mph /  0.5 km/h 2.0 mph /  3.2 km/h 97 % 0.00 in /  0 mm
22:43 38.1 °F /  3.4 °C 37.3 °F /  2.9 °C 29.93 in /  1013.4 hPa West 0.2 mph /  0.3 km/h   97 % 0.00 in /  0 mm
22:48 38.2 °F /  3.4 °C 37.4 °F /  3 °C 29.94 in /  1013.8 hPa West 1.6 mph /  2.6 km/h 2.3 mph /  3.7 km/h 97 % 0.00 in /  0 mm
22:53 38.2 °F /  3.4 °C 37.4 °F /  3 °C 29.93 in /  1013.4 hPa Calm     97 % 0.00 in /  0 mm
22:58 38.3 °F /  3.5 °C 37.5 °F /  3.1 °C 29.93 in /  1013.4 hPa Calm     97 % 0.00 in /  0 mm
23:03 38.4 °F /  3.6 °C 37.6 °F /  3.1 °C 29.93 in /  1013.4 hPa West 0.6 mph /  1 km/h 2.3 mph /  3.7 km/h 97 % 0.00 in /  0 mm
23:08 38.4 °F /  3.6 °C 37.6 °F /  3.1 °C 29.93 in /  1013.4 hPa WSW 0.3 mph /  0.5 km/h 3.5 mph /  5.6 km/h 97 % 0.00 in /  0 mm
23:14 38.5 °F /  3.6 °C 37.7 °F /  3.2 °C 29.93 in /  1013.4 hPa WSW 0.3 mph /  0.5 km/h 1.2 mph /  1.9 km/h 97 % 0.00 in /  0 mm
23:19 38.6 °F /  3.7 °C 37.8 °F /  3.2 °C 29.93 in /  1013.4 hPa WSW 0.8 mph /  1.3 km/h 2.3 mph /  3.7 km/h 97 % 0.00 in /  0 mm
23:24 38.7 °F /  3.7 °C 37.9 °F /  3.3 °C 29.93 in /  1013.4 hPa WSW 1.0 mph /  1.6 km/h 2.3 mph /  3.7 km/h 97 % 0.00 in /  0 mm
23:29 38.8 °F /  3.8 °C 38.3 °F /  3.5 °C 29.92 in /  1013.1 hPa Calm     98 % 0.00 in /  0 mm
23:34 38.9 °F /  3.8 °C 38.4 °F /  3.6 °C 29.92 in /  1013.1 hPa Calm   1.2 mph /  1.9 km/h 98 % 0.00 in /  0 mm
23:39 39.0 °F /  3.9 °C 38.5 °F /  3.6 °C 29.92 in /  1013.1 hPa WSW 0.9 mph /  1.4 km/h 3.0 mph /  4.8 km/h 98 % 0.00 in /  0 mm
23:44 39.1 °F /  3.9 °C 38.3 °F /  3.5 °C 29.91 in /  1012.8 hPa Calm     97 % 0.00 in /  0 mm
23:49 39.2 °F /  4 °C 38.4 °F /  3.6 °C 29.92 in /  1013.1 hPa Calm   1.2 mph /  1.9 km/h 97 % 0.00 in /  0 mm
23:54 39.2 °F /  4 °C 38.4 °F /  3.6 °C 29.91 in /  1012.8 hPa Calm     97 % 0.00 in /  0 mm
23:59 39.3 °F /  4.1 °C 38.5 °F /  3.6 °C 29.91 in /  1012.8 hPa Calm     97 % 0.00 in /  0 mm
Crab Meadow Weather
Compliments of Weather Underground - 3 mb

Script developed by  Jim McMurry - jmcmurry@mwt.net Adapted for the template by  Wim van der Kuil - Leuven-Template.eu

Dew Point: The dew point is the temperature to which air must be cooled, at constant barometric pressure, for water vapor to condense into water. The condensed water is called dew. When the dew point temperature falls below freezing it is called the frost point, as the water no longer creates dew but instead creates frost. The dew point is associated with relative humidity. A high relative humidity indicates that the dew point is closer to the current air temperature. If the relative humidity is 100%, the dew point is equal to the current temperature. Given a constant dew point, an increase in temperature will lead to a decrease in relative humidity.